• Join FlightAware (Why Join?)
  • Login
  • US Flag 
04:40AM EDT


 

Airport Tracker/Info


-or-


 

Live Flight TrackerFlight Track Log ✈ N36120 ✈ 07-Jul-2013 ✈ KLPR - KBED

Flight Track Log - Related Links

Times and Time Zones

All times are in EDT time to prevent confusion due to time zone crossing. See the N36120 flight status page for this flight to view local times or setup timezone preferences in your user account.

Time Position Orientation Groundspeed Altitude Reporting Facility
EDT Latitude Longitude Course Direction KTS MPH feet Rate Location/Type
11:26AM 41.3400 -82.1900 276° West 82 94 1,100  Level Cleveland Center
11:27AM 41.3417 -82.2122 276° West 91 105 1,600 480 Climbing Cleveland Center
11:28AM 41.3689 -82.2183 350° North 105 121 2,000 300 Climbing Cleveland Center
11:29AM 41.3958 -82.2192 359° North 99 114 2,300 420 Climbing Cleveland Center
11:30AM 41.4189 -82.2031 28° Northeast 103 119 2,800 420 Climbing Cleveland Center
11:31AM 41.4444 -82.1731 41° Northeast 107 123 3,200 360 Climbing Cleveland Center
11:32AM 41.4636 -82.1458 47° Northeast 111 128 3,600 360 Climbing Cleveland Center
11:33AM 41.4847 -82.1158 47° Northeast 117 135 3,900 300 Climbing Cleveland Center
11:34AM 41.5083 -82.0831 46° Northeast 116 133 4,300 360 Climbing Cleveland Center
11:35AM 41.5314 -82.0533 44° Northeast 118 136 4,700 300 Climbing Cleveland Center
11:36AM 41.5528 -82.0203 49° Northeast 117 135 5,000 300 Climbing Cleveland Center
11:37AM 41.5742 -81.9875 49° Northeast 117 135 5,400 420 Climbing Cleveland Center
11:38AM 41.5975 -81.9547 46° Northeast 115 132 5,900 360 Climbing Cleveland Center
11:39AM 41.6186 -81.9219 49° Northeast 113 130 6,200 240 Climbing Cleveland Center
11:40AM 41.6317 -81.8833 66° East 115 132 6,500 240 Climbing Cleveland Center
11:41AM 41.6467 -81.8475 61° Northeast 119 137 6,700 240 Climbing Cleveland Center
11:42AM 41.6614 -81.8172 57° Northeast 118 136 7,000 300 Climbing Cleveland Center
11:43AM 41.6806 -81.7814 54° Northeast 117 135 7,300 240 Climbing Cleveland Center
11:44AM 41.7019 -81.7372 57° Northeast 121 139 7,500 180 Climbing Cleveland Center
11:45AM 41.7169 -81.6958 64° Northeast 125 144 7,700 240 Climbing Cleveland Center
11:46AM 41.7339 -81.6544 61° Northeast 129 148 8,000 180 Climbing Cleveland Center
11:48AM 41.7639 -81.5825 61° Northeast 136 157 8,300 120 Climbing Cleveland Center
11:49AM 41.7850 -81.5411 56° Northeast 136 157 8,400 120 Climbing Cleveland Center
11:50AM 41.8019 -81.4967 63° Northeast 136 157 8,600 120 Climbing Cleveland Center
11:51AM 41.8192 -81.4525 62° Northeast 136 157 8,700 60 Climbing Cleveland Center
11:52AM 41.8381 -81.4081 60° Northeast 136 157 8,800 120 Climbing Cleveland Center
11:53AM 41.8428 -81.3581 83° East 131 151 9,000 60 Climbing Cleveland Center
11:54AM 41.8472 -81.3050 84° East 131 151 9,000 60 Level Cleveland Center
11:55AM 41.8536 -81.2578 80° East 131 151 9,200 120 Climbing Cleveland Center
11:56AM 41.8561 -81.2075 86° East 136 157 9,300 60 Climbing Cleveland Center
11:57AM 41.8628 -81.1575 80° East 136 157 9,400 60 Climbing Cleveland Center
11:58AM 41.8669 -81.1072 84° East 136 157 9,500 60 Climbing Cleveland Center
11:59AM 41.8714 -81.0600 83° East 136 157 9,600  Climbing Cleveland Center
12:00PM 41.8800 -81.0097 77° East 136 157 9,600  Level Cleveland Center
12:01PM 41.8864 -80.9542 81° East 136 157 9,700 60 Climbing Cleveland Center
12:02PM 41.8928 -80.9039 80° East 136 157 9,800 60 Climbing Cleveland Center
12:03PM 41.8972 -80.8508 84° East 141 162 9,900 120 Climbing Cleveland Center
12:04PM 41.9033 -80.8036 80° East 141 162 10,100 60 Climbing Cleveland Center
12:05PM 41.9097 -80.7506 81° East 141 162 10,100  Level Cleveland Center
12:06PM 41.9183 -80.7031 76° East 136 157 10,200  Climbing Cleveland Center
12:07PM 41.9244 -80.6528 81° East 136 157 10,200 60 Level Cleveland Center
12:08PM 41.9308 -80.6056 80° East 136 157 10,400 60 Climbing Cleveland Center
12:09PM 41.9350 -80.5608 83° East 131 151 10,400  Level Cleveland Center
12:10PM 41.9392 -80.5106 84° East 126 145 10,500 60 Climbing Cleveland Center
12:11PM 41.9433 -80.4631 83° East 126 145 10,600 60 Climbing Cleveland Center
12:12PM 41.9472 -80.4128 84° East 126 145 10,700 60 Climbing Cleveland Center
12:13PM 41.9472 -80.3597 90° East 126 145 10,800 60 Climbing Cleveland Center
12:14PM 41.9533 -80.3122 80° East 126 145 10,900 60 Climbing Cleveland Center
12:15PM 41.9594 -80.2619 81° East 131 151 11,000  Climbing Cleveland Center
12:16PM 41.9636 -80.2089 84° East 131 151 11,000  Level Cleveland Center
12:17PM 41.9675 -80.1586 84° East 131 151 11,100  Climbing Cleveland Center
12:18PM 41.9736 -80.1056 81° East 131 151 11,100  Level Cleveland Center
12:19PM 41.9756 -80.0497 87° East 141 162 11,100  Level Cleveland Center
12:20PM 41.9772 -79.9967 88° East 146 168 11,100 -60 Level Cleveland Center
12:21PM 41.9853 -79.9436 78° East 146 168 11,000  Descending Cleveland Center
12:22PM 41.9911 -79.8875 82° East 146 168 11,100  Climbing Cleveland Center
12:23PM 41.9992 -79.8344 78° East 141 162 11,100  Level Cleveland Center
12:24PM 42.0092 -79.7783 76° East 147 169 11,100  Level Cleveland Center
12:25PM 42.0131 -79.7225 85° East 147 169 11,100  Level Cleveland Center
12:26PM 42.0208 -79.6664 79° East 147 169 11,100  Level Cleveland Center
12:27PM 42.0267 -79.6106 82° East 147 169 11,100 -60 Level Cleveland Center
12:28PM 42.0344 -79.5517 80° East 147 169 11,000 -60 Descending Cleveland Center
12:29PM 42.0403 -79.4900 83° East 147 169 11,000  Level Cleveland Center
12:30PM 42.0481 -79.4339 79° East 147 169 11,000  Level Cleveland Center
12:31PM 42.0517 -79.3781 85° East 147 169 11,100  Climbing Cleveland Center
12:32PM 42.0594 -79.3219 79° East 147 169 11,000 -60 Descending Cleveland Center
12:33PM 42.0628 -79.2631 86° East 147 169 11,000  Level Cleveland Center
12:34PM 42.0664 -79.2100 85° East 147 169 11,000 -60 Level Cleveland Center
12:35PM 42.0700 -79.1511 85° East 147 169 10,900  Descending Cleveland Center
12:36PM 42.0733 -79.0978 85° East 147 169 11,000  Climbing Cleveland Center
12:37PM 42.0767 -79.0389 86° East 142 163 11,000  Level Cleveland Center
12:38PM 42.0803 -78.9831 85° East 142 163 11,000 -60 Level Cleveland Center
12:39PM 42.0836 -78.9297 85° East 142 163 10,900  Descending Cleveland Center
12:40PM 42.0847 -78.8708 89° East 142 163 11,000  Climbing Cleveland Center
12:41PM 42.0903 -78.8147 82° East 142 163 11,000  Level Cleveland Center
12:42PM 42.0936 -78.7617 85° East 142 163 11,000  Level Cleveland Center
12:43PM 42.0989 -78.7056 83° East 142 163 11,000  Level Cleveland Center
12:44PM 42.1042 -78.6492 83° East 142 163 11,000  Level Cleveland Center
12:45PM 42.1094 -78.5931 83° East 147 169 11,000 -60 Level Cleveland Center
12:46PM 42.1128 -78.5397 85° East 142 163 10,900 -60 Descending Cleveland Center
12:47PM 42.1181 -78.4864 82° East 142 163 10,900  Level Cleveland Center
12:48PM 42.1211 -78.4303 86° East 142 163 10,900  Level Cleveland Center
12:49PM 42.1264 -78.3714 83° East 142 163 10,900  Level Cleveland Center
12:50PM 42.1336 -78.3208 79° East 142 163 10,900  Level Cleveland Center
12:51PM 42.1389 -78.2644 83° East 142 163 10,900  Level Cleveland Center
12:52PM 42.1461 -78.2083 80° East 142 163 11,000  Climbing Cleveland Center
12:53PM 42.1553 -78.1519 78° East 142 163 11,000  Level Cleveland Center
12:54PM 42.1603 -78.0986 83° East 147 169 11,000 -60 Level Cleveland Center
12:55PM 42.1675 -78.0394 81° East 147 169 10,900  Descending Cleveland Center
12:56PM 42.1725 -77.9858 83° East 147 169 11,000  Climbing Cleveland Center
12:57PM 42.1794 -77.9269 81° East 147 169 10,900  Descending Cleveland Center
12:58PM 42.1844 -77.8733 83° East 147 169 11,000  Climbing Cleveland Center
12:59PM 42.1894 -77.8142 83° East 147 169 11,000  Level Cleveland Center
01:00PM 42.1942 -77.7581 84° East 147 169 11,000  Level Cleveland Center
01:01PM 42.1969 -77.7019 86° East 147 169 11,000  Level Cleveland Center
01:02PM 42.1997 -77.6456 86° East 147 169 11,000  Level Cleveland Center
01:03PM 42.2025 -77.5894 86° East 147 169 11,000  Level Cleveland Center
01:04PM 42.2072 -77.5331 84° East 147 169 11,000  Level Cleveland Center
01:06PM 42.2081 -77.4172 89° East 154 177 11,100  Climbing New York Center
01:07PM 42.2111 -77.3614 86° East 154 177 11,100  Level New York Center
01:08PM 42.2164 -77.3061 83° East 154 177 11,100  Level New York Center
01:09PM 42.2194 -77.2475 86° East 154 177 11,100  Level New York Center
01:10PM 42.2228 -77.1889 86° East 154 177 11,100  Level New York Center
01:11PM 42.2278 -77.1306 83° East 160 184 11,100  Level New York Center
01:12PM 42.2311 -77.0722 86° East 160 184 11,100  Level New York Center
01:13PM 42.2339 -77.0164 86° East 160 184 11,100  Level New York Center
01:14PM 42.2392 -76.9581 83° East 160 184 11,100  Level New York Center
01:15PM 42.2442 -76.8997 83° East 160 184 11,100  Level New York Center
01:16PM 42.2492 -76.8414 83° East 160 184 11,100  Level New York Center
01:17PM 42.2544 -76.7803 83° East 160 184 11,100  Level New York Center
01:18PM 42.2594 -76.7192 84° East 160 184 11,100  Level New York Center
01:19PM 42.2647 -76.6578 83° East 160 184 11,100  Level New York Center
01:21PM 42.2758 -76.5514 82° East 160 184 11,100  Level Boston Center
01:22PM 42.2864 -76.4931 76° East 160 184 11,100  Level Boston Center
01:23PM 42.2967 -76.4347 77° East 160 184 11,100 -60 Level Boston Center
01:24PM 42.3092 -76.3767 74° East 160 184 11,000  Descending Boston Center
01:25PM 42.3194 -76.3183 77° East 160 184 11,100  Climbing Boston Center
01:26PM 42.3319 -76.2600 74° East 160 184 11,100  Level Boston Center
01:27PM 42.3422 -76.2017 77° East 160 184 11,100  Level Boston Center
01:28PM 42.3506 -76.1375 80° East 166 191 11,100  Level Boston Center
01:29PM 42.3589 -76.0761 80° East 166 191 11,100  Level Boston Center
01:30PM 42.3689 -76.0206 76° East 160 184 11,100  Level Boston Center
01:31PM 42.3831 -75.9653 71° East 154 177 11,100  Level Boston Center
01:32PM 42.3936 -75.9011 77° East 160 184 11,100  Level Boston Center
01:33PM 42.4036 -75.8369 78° East 166 191 11,100  Level Boston Center
01:34PM 42.4178 -75.7842 70° East 160 184 11,100 -60 Level Boston Center
01:35PM 42.4278 -75.7286 76° East 155 178 11,000  Descending Boston Center
01:36PM 42.4422 -75.6589 74° East 149 171 11,100  Climbing Boston Center
01:37PM 42.4503 -75.5944 80° East 161 185 11,100  Level Boston Center
01:38PM 42.4603 -75.5361 77° East 161 185 11,200  Climbing Boston Center
01:39PM 42.4722 -75.4775 75° East 161 185 11,100 -60 Descending Boston Center
01:40PM 42.4842 -75.4189 75° East 161 185 11,100  Level Boston Center
01:41PM 42.4942 -75.3603 77° East 161 185 11,100  Level Boston Center
01:42PM 42.5061 -75.3017 75° East 161 185 11,100  Level Boston Center
01:44PM 42.5319 -75.1789 74° East 166 191 11,100  Level Boston Center
01:45PM 42.5458 -75.1258 70° East 160 184 11,200  Climbing Boston Center
01:46PM 42.5575 -75.0672 75° East 160 184 11,100  Descending Boston Center
01:47PM 42.5714 -75.0058 73° East 160 184 11,200  Climbing Boston Center
01:48PM 42.5853 -74.9469 72° East 160 184 11,100 -60 Descending Boston Center
01:49PM 42.5969 -74.8883 75° East 160 184 11,100  Level Boston Center
01:50PM 42.6108 -74.8297 72° East 160 184 11,100  Level Boston Center
01:51PM 42.6225 -74.7736 74° East 165 190 11,100  Level Boston Center
01:52PM 42.6361 -74.7064 75° East 165 190 11,100  Level Boston Center
01:53PM 42.6478 -74.6533 73° East 165 190 11,200  Climbing Boston Center
01:54PM 42.6594 -74.5886 76° East 160 184 11,200  Level Boston Center
01:55PM 42.6708 -74.5325 75° East 160 184 11,200 -60 Level Boston Center
01:56PM 42.6825 -74.4653 77° East 160 184 11,100 -60 Descending Boston Center
01:57PM 42.6919 -74.4061 78° East 160 184 11,100  Level Boston Center
01:58PM 42.7033 -74.3417 76° East 160 184 11,100  Level Boston Center
01:59PM 42.7125 -74.2853 78° East 160 184 11,200 -60 Climbing Boston Center
02:00PM 42.7242 -74.2206 76° East 160 184 11,000 -60 Descending Boston Center
02:01PM 42.7333 -74.1644 77° East 160 184 11,100  Climbing Boston Center
02:02PM 42.7469 -74.0828 77° East 165 190 11,000  Descending Boston Center
02:03PM 42.7561 -74.0322 76° East 165 190 11,100  Climbing Boston Center
02:04PM 42.7653 -73.9672 79° East 165 190 11,000 -60 Descending Boston Center
02:05PM 42.7764 -73.9053 76° East 165 190 11,000  Level Boston Center
02:06PM 42.7856 -73.8433 79° East 165 190 11,000 -60 Level Boston Center
02:07PM 42.7989 -73.7842 73° East 160 184 10,900  Descending Boston Center
02:08PM 42.8036 -73.7247 84° East 160 184 11,000  Climbing Boston Center
02:09PM 42.7961 -73.6539 98° East 165 190 11,000  Level Boston Center
02:10PM 42.7883 -73.6000 101° East 158 182 11,100  Climbing Boston Center
02:11PM 42.7806 -73.5347 99° East 163 188 11,100  Level Boston Center
02:12PM 42.7728 -73.4781 101° East 163 188 11,100 -60 Level Boston Center
02:13PM 42.7672 -73.4103 96° East 163 188 11,000 -60 Descending Boston Center
02:14PM 42.7614 -73.3506 98° East 163 188 11,000 -60 Level Boston Center
02:15PM 42.7536 -73.2828 99° East 163 188 10,900  Descending Boston Center
02:16PM 42.7478 -73.2289 98° East 158 182 11,100 60 Climbing Boston Center
02:17PM 42.7378 -73.1636 102° East 158 182 11,100  Level Boston Center
02:18PM 42.7297 -73.1072 101° East 158 182 11,100 -60 Level Boston Center
02:19PM 42.7197 -73.0478 103° East 158 182 11,000  Descending Boston Center
02:20PM 42.7097 -72.9825 102° East 163 188 11,200  Climbing Boston Center
02:21PM 42.7017 -72.9203 100° East 163 188 11,100 -120 Descending Boston Center
02:22PM 42.6936 -72.8581 100° East 163 188 11,000  Descending Boston Center
02:23PM 42.6853 -72.7989 101° East 163 188 11,100  Climbing Boston Center
02:24PM 42.6772 -72.7394 100° East 163 188 11,100 -60 Level Boston Center
02:25PM 42.6689 -72.6772 100° East 163 188 11,000  Descending Boston Center
02:26PM 42.6669 -72.6150 92° East 163 188 11,100  Climbing Boston Center
02:27PM 42.6650 -72.5531 92° East 163 188 11,000 -60 Descending Boston Center
02:28PM 42.6608 -72.4936 95° East 163 188 11,000  Level Boston Center
02:29PM 42.6567 -72.4317 95° East 163 188 11,100 -120 Climbing Boston Center
02:31PM 42.6442 -72.3103 98° East 158 182 10,800 -300 Descending Boston Center
02:32PM 42.6400 -72.2453 95° East 172 198 10,200 -660 Descending Boston Center
02:33PM 42.6314 -72.1692 99° East 180 207 9,500 -600 Descending Boston Center
02:34PM 42.6125 -72.1128 114° Southeast 180 207 9,000 -600 Descending Boston Center
02:35PM 42.5956 -72.0425 108° East 180 207 8,300 -660 Descending Boston Center
02:36PM 42.5869 -71.9803 101° East 175 201 7,700 -660 Descending Boston Center
02:37PM 42.5783 -71.9072 99° East 181 208 7,000 -540 Descending Boston Center
02:38PM 42.5697 -71.8567 103° East 181 208 6,700 -480 Descending Boston Center
02:39PM 42.5506 -71.7806 109° East 181 208 6,100 -300 Descending Boston Center
02:40PM 42.5419 -71.7328 104° East 160 184 6,100 -120 Level Boston Center
02:41PM 42.5458 -71.6650 86° East 154 177 5,900 -480 Descending Boston Center
02:42PM 42.5433 -71.6058 93° East 160 184 5,200 -600 Descending Boston Center
02:43PM 42.5500 -71.5333 83° East 166 191 4,800 -660 Descending KA90
02:44PM 42.5500 -71.4667 90° East 161 185 3,900 -840 Descending KA90
02:45PM 42.5333 -71.4167 114° Southeast 149 171 3,200 -660 Descending KA90
02:46PM 42.5167 -71.3667 114° Southeast 142 163 2,600 -660 Descending KA90
02:47PM 42.5000 -71.3167 114° Southeast 146 168 1,900 -720 Descending KA90